createdAt,value
2018-10-17T00:02:37.812Z,1.20
2018-10-17T00:05:07.571Z,1.30
2018-10-17T00:07:36.316Z,1.40
2018-10-17T00:10:05.777Z,1.60
2018-10-17T01:02:36.546Z,0.60
2018-10-17T01:05:05.295Z,0.60
2018-10-17T01:07:34.005Z,0.80
2018-10-17T01:10:02.917Z,1.00
2018-10-17T02:02:43.753Z,0.10
2018-10-17T02:05:12.518Z,0.10
2018-10-17T02:07:41.155Z,0.30
2018-10-17T03:02:37.592Z,-0.60
2018-10-17T03:05:06.414Z,-0.50
2018-10-17T03:07:35.090Z,-0.30
2018-10-17T03:10:04.019Z,-0.10
2018-10-17T04:02:39.026Z,-0.80
2018-10-17T04:05:08.188Z,-0.80
2018-10-17T04:07:36.997Z,-0.70
2018-10-17T05:02:38.142Z,-1.00
2018-10-17T05:05:06.840Z,-0.90
2018-10-17T05:07:35.546Z,-0.80
2018-10-17T05:10:04.277Z,-0.50
2018-10-17T06:02:39.135Z,-0.10
2018-10-17T06:05:08.695Z,0.00
2018-10-17T06:07:37.453Z,0.30
2018-10-17T07:02:39.558Z,1.90
2018-10-17T07:05:09.134Z,2.20
2018-10-17T07:07:37.848Z,2.50
2018-10-17T07:10:06.663Z,2.90
2018-10-17T08:02:42.873Z,6.90
2018-10-17T08:05:11.563Z,7.20
2018-10-17T08:07:40.270Z,7.50
2018-10-17T09:02:36.562Z,11.20
2018-10-17T09:05:05.590Z,11.40
2018-10-17T09:07:34.319Z,11.70
2018-10-17T09:10:03.115Z,12.10
2018-10-17T10:02:45.581Z,15.60
2018-10-17T10:05:14.309Z,15.60
2018-10-17T10:07:43.053Z,15.80
2018-10-17T11:02:38.018Z,17.20
2018-10-17T11:05:06.859Z,17.20
2018-10-17T11:07:35.485Z,17.40
2018-10-17T11:10:04.846Z,17.60
2018-10-17T12:02:37.893Z,18.10
2018-10-17T12:05:09.002Z,18.20
2018-10-17T12:07:37.449Z,18.30
2018-10-17T12:10:06.869Z,18.50
2018-10-17T13:02:38.446Z,17.70
2018-10-17T13:05:08.530Z,17.70
2018-10-17T13:07:37.214Z,17.70
2018-10-17T13:10:07.570Z,18.00
2018-10-17T14:02:38.376Z,16.40
2018-10-17T14:05:07.347Z,16.30
2018-10-17T14:07:36.061Z,16.30
2018-10-17T14:10:05.262Z,16.50
2018-10-17T15:02:39.849Z,13.00
2018-10-17T15:05:08.752Z,12.90
2018-10-17T15:07:37.414Z,12.90
2018-10-17T15:10:06.416Z,13.00
2018-10-17T16:02:41.883Z,9.60
2018-10-17T16:05:11.558Z,9.50
2018-10-17T16:07:40.475Z,9.60
2018-10-17T17:02:39.925Z,7.80
2018-10-17T17:05:11.526Z,7.70
2018-10-17T17:07:40.547Z,7.80
2018-10-17T18:02:36.639Z,6.60
2018-10-17T18:05:05.882Z,6.70
2018-10-17T18:07:34.572Z,6.70
2018-10-17T18:10:03.308Z,6.90
2018-10-17T19:02:38.128Z,6.10
2018-10-17T19:05:06.850Z,6.10
2018-10-17T19:07:35.651Z,6.20
2018-10-17T19:10:04.847Z,6.30
2018-10-17T20:02:38.205Z,5.20
2018-10-17T20:05:06.998Z,5.20
2018-10-17T20:07:35.732Z,5.30
2018-10-17T20:10:04.607Z,5.50
2018-10-17T21:02:39.225Z,4.50
2018-10-17T21:05:08.069Z,4.60
2018-10-17T21:07:36.896Z,4.70
2018-10-17T22:02:43.716Z,3.90
2018-10-17T22:05:12.462Z,3.90
2018-10-17T22:07:41.162Z,4.00
2018-10-17T23:02:41.528Z,3.00
2018-10-17T23:05:10.306Z,3.10
2018-10-17T23:07:38.984Z,3.30
2018-10-17T23:10:07.688Z,3.50
